createdAt,value
2017-08-27T00:00:03.150Z,15.90
2017-08-27T00:02:32.420Z,16.80
2017-08-27T00:05:01.750Z,18.20
2017-08-27T00:07:31.018Z,17.05
2017-08-27T00:10:00.350Z,15.98
2017-08-27T00:12:29.613Z,15.93
2017-08-27T00:14:58.880Z,17.58
2017-08-27T00:17:28.139Z,16.50
2017-08-27T00:19:57.407Z,15.63
2017-08-27T00:22:26.660Z,15.57
2017-08-27T00:24:55.925Z,15.60
2017-08-27T00:27:25.198Z,15.73
2017-08-27T00:29:55.295Z,15.82
2017-08-27T00:32:24.555Z,17.17
2017-08-27T00:34:53.817Z,15.07
2017-08-27T00:37:23.087Z,16.75
2017-08-27T00:39:52.351Z,16.80
2017-08-27T00:42:21.605Z,15.50
2017-08-27T00:44:50.864Z,15.38
2017-08-27T00:47:20.142Z,16.42
2017-08-27T00:49:49.418Z,14.98
2017-08-27T00:52:18.661Z,15.30
2017-08-27T00:54:47.917Z,15.30
2017-08-27T00:57:17.182Z,16.65
2017-08-27T00:59:46.442Z,15.98
2017-08-27T01:02:15.708Z,15.60
2017-08-27T01:04:44.959Z,16.90
2017-08-27T01:07:14.220Z,16.05
2017-08-27T01:09:43.472Z,16.92
2017-08-27T01:12:12.727Z,15.35
2017-08-27T01:14:41.984Z,15.25
2017-08-27T01:17:11.242Z,15.32
2017-08-27T01:19:40.493Z,16.40
2017-08-27T01:22:09.749Z,16.95
2017-08-27T01:24:39.010Z,16.62
2017-08-27T01:27:08.254Z,18.08
2017-08-27T01:29:37.509Z,17.73
2017-08-27T01:32:06.764Z,17.98
2017-08-27T01:34:36.033Z,16.60
2017-08-27T01:37:06.040Z,16.25
2017-08-27T01:39:35.305Z,17.15
2017-08-27T01:42:04.610Z,18.05
2017-08-27T01:44:33.832Z,19.92
2017-08-27T01:47:03.088Z,18.95
2017-08-27T01:49:32.353Z,16.70
2017-08-27T01:52:01.608Z,16.92
2017-08-27T01:54:30.869Z,16.00
2017-08-27T01:57:00.132Z,15.98
2017-08-27T01:59:29.408Z,15.15
2017-08-27T02:01:58.682Z,16.35
2017-08-27T02:04:27.966Z,15.38
2017-08-27T02:06:57.221Z,16.80
2017-08-27T02:09:26.477Z,17.33
2017-08-27T02:11:55.734Z,17.00
2017-08-27T02:14:24.984Z,16.12
2017-08-27T02:16:54.240Z,29.40
2017-08-27T02:19:23.496Z,29.65
2017-08-27T02:21:52.750Z,21.50
2017-08-27T02:24:22.008Z,25.15
2017-08-27T02:26:51.267Z,30.00
2017-08-27T02:29:20.521Z,28.75
2017-08-27T02:31:49.782Z,25.83
2017-08-27T02:34:19.037Z,27.15
2017-08-27T02:36:48.292Z,25.58
2017-08-27T02:39:17.548Z,23.70
2017-08-27T02:41:46.817Z,17.17
2017-08-27T02:44:16.076Z,17.85
2017-08-27T02:46:45.328Z,17.80
2017-08-27T02:49:14.580Z,15.98
2017-08-27T02:51:43.849Z,16.10
2017-08-27T02:54:13.105Z,15.70
2017-08-27T02:56:42.365Z,16.30
2017-08-27T02:59:11.618Z,14.80
2017-08-27T03:01:42.338Z,17.05
2017-08-27T03:04:11.552Z,15.90
2017-08-27T03:06:40.822Z,16.98
2017-08-27T03:09:10.068Z,18.30
2017-08-27T03:11:39.329Z,19.48
2017-08-27T03:14:08.580Z,20.92
2017-08-27T03:16:37.841Z,19.55
2017-08-27T03:19:07.111Z,17.33
2017-08-27T03:21:36.364Z,16.00
2017-08-27T03:24:05.631Z,15.85
2017-08-27T03:26:34.889Z,14.98
2017-08-27T03:29:04.141Z,17.30
2017-08-27T03:31:33.396Z,17.05
2017-08-27T03:34:02.648Z,17.65
2017-08-27T03:36:31.900Z,17.75
2017-08-27T03:39:01.152Z,17.35
2017-08-27T03:41:30.408Z,16.92
2017-08-27T03:43:59.672Z,16.62
2017-08-27T03:46:28.925Z,15.52
2017-08-27T03:48:58.184Z,16.30
2017-08-27T03:51:27.436Z,15.20
2017-08-27T03:53:56.716Z,15.63
2017-08-27T03:56:25.960Z,16.02
2017-08-27T03:58:55.245Z,15.45
2017-08-27T04:01:24.495Z,14.90
2017-08-27T04:03:53.749Z,15.02
2017-08-27T04:06:22.995Z,14.68
2017-08-27T04:08:52.252Z,16.17
2017-08-27T04:11:21.516Z,15.60
2017-08-27T04:13:50.765Z,16.00
2017-08-27T04:16:20.028Z,14.48
2017-08-27T04:18:49.276Z,15.75
2017-08-27T04:21:18.532Z,14.48
2017-08-27T04:23:47.785Z,15.85
2017-08-27T04:26:17.035Z,16.15
2017-08-27T04:28:46.288Z,14.52
2017-08-27T04:31:15.557Z,15.98
2017-08-27T04:33:44.820Z,14.98
2017-08-27T04:36:14.100Z,17.77
2017-08-27T04:38:43.350Z,16.25
2017-08-27T04:41:12.625Z,16.70
2017-08-27T04:43:41.880Z,16.12
2017-08-27T04:46:11.142Z,16.70
2017-08-27T04:48:40.397Z,16.00
2017-08-27T04:51:09.652Z,15.38
2017-08-27T04:53:38.912Z,16.42
2017-08-27T04:56:08.169Z,16.30
2017-08-27T04:58:37.421Z,15.45
2017-08-27T05:01:07.246Z,15.80
2017-08-27T05:03:36.525Z,15.77
2017-08-27T05:06:05.765Z,15.45
2017-08-27T05:08:35.024Z,15.35
2017-08-27T05:11:04.276Z,15.52
2017-08-27T05:13:34.115Z,14.23
2017-08-27T05:16:03.369Z,15.63
2017-08-27T05:18:32.628Z,15.80
2017-08-27T05:21:01.921Z,16.62
2017-08-27T05:23:31.137Z,18.27
2017-08-27T05:26:00.383Z,16.30
2017-08-27T05:28:29.640Z,15.80
2017-08-27T05:30:58.895Z,14.63
2017-08-27T05:33:28.161Z,16.37
2017-08-27T05:35:57.408Z,14.63
2017-08-27T05:38:26.678Z,15.40
2017-08-27T05:40:56.022Z,15.00
2017-08-27T05:43:25.244Z,17.40
2017-08-27T05:45:54.504Z,14.55
2017-08-27T05:48:23.766Z,15.45
2017-08-27T05:50:53.025Z,15.88
2017-08-27T05:53:22.292Z,14.85
2017-08-27T05:55:51.560Z,16.95
2017-08-27T05:58:20.807Z,16.60
2017-08-27T06:00:50.072Z,15.77
2017-08-27T06:03:19.323Z,16.05
2017-08-27T06:05:48.588Z,15.82
2017-08-27T06:08:17.849Z,16.25
2017-08-27T06:10:47.104Z,16.00
2017-08-27T06:13:16.355Z,15.90
2017-08-27T06:15:45.622Z,17.60
2017-08-27T06:18:14.867Z,15.57
2017-08-27T06:20:44.120Z,16.23
2017-08-27T06:23:13.381Z,16.62
2017-08-27T06:25:42.644Z,15.48
2017-08-27T06:28:11.888Z,16.12
2017-08-27T06:30:41.156Z,17.48
2017-08-27T06:33:10.423Z,17.20
2017-08-27T06:35:39.676Z,14.50
2017-08-27T06:38:08.935Z,16.45
2017-08-27T06:40:38.192Z,16.70
2017-08-27T06:43:07.452Z,16.12
2017-08-27T06:45:36.714Z,17.73
2017-08-27T06:48:05.968Z,16.40
2017-08-27T06:50:35.253Z,17.42
2017-08-27T06:53:04.503Z,16.83
2017-08-27T06:55:33.865Z,17.90
2017-08-27T06:58:03.112Z,18.15
2017-08-27T07:00:32.363Z,20.23
2017-08-27T07:03:01.618Z,20.85
2017-08-27T07:05:30.872Z,20.55
2017-08-27T07:08:00.144Z,20.77
2017-08-27T07:10:29.428Z,23.02
2017-08-27T07:12:58.681Z,20.55
2017-08-27T07:15:27.933Z,21.58
2017-08-27T07:17:57.206Z,20.65
2017-08-27T07:20:26.464Z,21.75
2017-08-27T07:22:55.747Z,20.33
2017-08-27T07:25:24.976Z,20.98
2017-08-27T07:27:54.232Z,19.62
2017-08-27T07:30:23.482Z,17.55
2017-08-27T07:32:52.736Z,17.65
2017-08-27T07:35:21.992Z,19.40
2017-08-27T07:37:51.240Z,19.67
2017-08-27T07:40:20.492Z,18.62
2017-08-27T07:42:49.761Z,18.65
2017-08-27T07:45:19.011Z,17.50
2017-08-27T07:47:48.268Z,17.62
2017-08-27T07:50:17.520Z,19.30
2017-08-27T07:52:46.778Z,17.25
2017-08-27T07:55:16.043Z,17.67
2017-08-27T07:57:45.303Z,16.67
2017-08-27T08:00:14.555Z,17.83
2017-08-27T08:02:43.812Z,18.83
2017-08-27T08:05:13.074Z,18.30
2017-08-27T08:07:42.345Z,17.10
2017-08-27T08:10:11.600Z,17.02
2017-08-27T08:12:40.861Z,18.67
2017-08-27T08:15:10.112Z,17.40
2017-08-27T08:17:39.376Z,16.92
2017-08-27T08:20:08.632Z,16.30
2017-08-27T08:22:37.888Z,16.83
2017-08-27T08:25:07.144Z,15.13
2017-08-27T08:27:36.412Z,17.20
2017-08-27T08:30:05.664Z,16.90
2017-08-27T08:32:34.933Z,16.95
2017-08-27T08:35:04.180Z,15.00
2017-08-27T08:37:33.444Z,16.40
2017-08-27T08:40:02.706Z,16.27
2017-08-27T08:42:31.965Z,15.07
2017-08-27T08:45:01.217Z,14.73
2017-08-27T08:47:30.465Z,16.42
2017-08-27T08:49:59.755Z,14.50
2017-08-27T08:52:29.016Z,16.05
2017-08-27T08:54:58.275Z,16.20
2017-08-27T08:57:27.533Z,15.23
2017-08-27T08:59:56.792Z,13.68
2017-08-27T09:02:26.056Z,14.23
2017-08-27T09:04:55.324Z,15.27
2017-08-27T09:07:24.572Z,14.20
2017-08-27T09:09:53.832Z,13.73
2017-08-27T09:12:23.093Z,14.73
2017-08-27T09:14:52.347Z,15.50
2017-08-27T09:17:21.608Z,15.23
2017-08-27T09:19:50.893Z,14.98
2017-08-27T09:22:20.153Z,13.40
2017-08-27T09:24:49.417Z,14.18
2017-08-27T09:27:18.676Z,14.40
2017-08-27T09:29:47.943Z,13.65
2017-08-27T09:32:17.204Z,14.93
2017-08-27T09:34:46.485Z,14.32
2017-08-27T09:37:15.732Z,15.70
2017-08-27T09:39:45.016Z,14.80
2017-08-27T09:42:14.273Z,14.50
2017-08-27T09:44:43.527Z,16.55
2017-08-27T09:47:12.795Z,15.27
2017-08-27T09:49:42.054Z,15.85
2017-08-27T09:52:11.311Z,16.25
2017-08-27T09:54:40.573Z,17.08
2017-08-27T09:57:09.846Z,15.07
2017-08-27T09:59:39.100Z,17.00
2017-08-27T10:02:08.366Z,16.40
2017-08-27T10:04:37.624Z,16.60
2017-08-27T10:07:06.900Z,15.00
2017-08-27T10:09:36.210Z,15.77
2017-08-27T10:12:05.441Z,15.35
2017-08-27T10:14:34.696Z,15.70
2017-08-27T10:17:03.952Z,17.62
2017-08-27T10:19:33.204Z,15.88
2017-08-27T10:22:02.468Z,14.93
2017-08-27T10:24:31.729Z,15.50
2017-08-27T10:27:00.990Z,16.60
2017-08-27T10:29:30.251Z,15.43
2017-08-27T10:31:59.521Z,14.45
2017-08-27T10:34:28.788Z,15.00
2017-08-27T10:36:58.052Z,13.38
2017-08-27T10:39:27.331Z,13.85
2017-08-27T10:41:56.605Z,14.85
2017-08-27T10:44:25.863Z,14.77
2017-08-27T10:46:55.138Z,14.50
2017-08-27T10:49:24.391Z,14.85
2017-08-27T10:51:53.681Z,13.43
2017-08-27T10:54:22.952Z,14.35
2017-08-27T10:56:52.224Z,14.18
2017-08-27T10:59:21.497Z,14.63
2017-08-27T11:01:50.753Z,14.90
2017-08-27T11:04:20.020Z,15.15
2017-08-27T11:06:49.281Z,14.00
2017-08-27T11:09:18.552Z,15.50
2017-08-27T11:11:47.832Z,14.05
2017-08-27T11:14:27.460Z,14.15
2017-08-27T11:16:56.796Z,14.20
2017-08-27T11:19:26.081Z,13.73
2017-08-27T11:21:55.340Z,13.88
2017-08-27T11:24:24.600Z,14.63
2017-08-27T11:26:53.871Z,14.85
2017-08-27T11:29:23.364Z,13.50
2017-08-27T11:31:52.635Z,14.90
2017-08-27T11:34:21.900Z,13.02
2017-08-27T11:36:51.162Z,13.65
2017-08-27T11:39:20.420Z,13.00
2017-08-27T11:41:49.685Z,13.18
2017-08-27T11:44:18.946Z,13.57
2017-08-27T11:46:48.204Z,13.80
2017-08-27T11:49:17.487Z,13.65
2017-08-27T11:51:46.760Z,12.98
2017-08-27T11:54:16.024Z,13.50
2017-08-27T11:56:45.296Z,14.00
2017-08-27T11:59:14.559Z,13.27
2017-08-27T12:01:43.828Z,13.30
2017-08-27T12:04:13.101Z,13.35
2017-08-27T12:06:42.375Z,13.23
2017-08-27T12:09:11.638Z,13.68
2017-08-27T12:11:40.916Z,13.35
2017-08-27T12:14:10.201Z,13.60
2017-08-27T12:16:39.464Z,12.48
2017-08-27T12:19:08.729Z,13.82
2017-08-27T12:21:37.996Z,13.07
2017-08-27T12:24:07.260Z,13.80
2017-08-27T12:26:36.544Z,14.40
2017-08-27T12:29:05.822Z,12.40
2017-08-27T12:31:35.060Z,13.88
2017-08-27T12:34:04.329Z,14.33
2017-08-27T12:36:33.604Z,13.38
2017-08-27T12:39:02.863Z,13.68
2017-08-27T12:41:32.152Z,14.35
2017-08-27T12:44:01.407Z,13.60
2017-08-27T12:46:30.688Z,12.98
2017-08-27T12:48:59.945Z,13.88
2017-08-27T12:51:29.204Z,15.57
2017-08-27T12:53:58.485Z,14.17
2017-08-27T12:56:27.750Z,14.37
2017-08-27T12:58:57.012Z,14.57
2017-08-27T13:01:26.287Z,13.73
2017-08-27T13:03:55.552Z,14.30
2017-08-27T13:06:24.873Z,14.93
2017-08-27T13:08:54.123Z,15.48
2017-08-27T13:11:23.386Z,13.85
2017-08-27T13:13:52.668Z,15.75
2017-08-27T13:16:21.921Z,13.90
2017-08-27T13:18:51.175Z,14.40
2017-08-27T13:21:20.433Z,15.90
2017-08-27T13:23:49.711Z,14.63
2017-08-27T13:26:18.961Z,14.30
2017-08-27T13:28:48.245Z,13.43
2017-08-27T13:31:17.504Z,14.10
2017-08-27T13:33:46.758Z,12.80
2017-08-27T13:36:16.022Z,14.27
2017-08-27T13:38:45.287Z,14.33
2017-08-27T13:41:14.532Z,13.40
2017-08-27T13:43:43.804Z,14.07
2017-08-27T13:46:13.072Z,14.73
2017-08-27T13:48:42.327Z,14.77
2017-08-27T13:51:11.575Z,14.87
2017-08-27T13:53:40.844Z,14.30
2017-08-27T13:56:10.083Z,14.53
2017-08-27T13:58:39.339Z,13.27
2017-08-27T14:01:08.607Z,13.07
2017-08-27T14:03:37.893Z,14.77
2017-08-27T14:06:07.148Z,13.70
2017-08-27T14:08:36.405Z,14.00
2017-08-27T14:11:05.885Z,13.90
2017-08-27T14:13:35.102Z,14.00
2017-08-27T14:16:04.352Z,14.77
2017-08-27T14:18:33.605Z,14.70
2017-08-27T14:21:02.907Z,14.37
2017-08-27T14:23:32.158Z,14.37
2017-08-27T14:26:01.424Z,13.83
2017-08-27T14:28:30.675Z,14.50
2017-08-27T14:30:59.946Z,14.33
2017-08-27T14:33:29.211Z,13.17
2017-08-27T14:35:58.473Z,14.23
2017-08-27T14:38:27.729Z,13.70
2017-08-27T14:40:56.999Z,13.05
2017-08-27T14:43:26.260Z,13.25
2017-08-27T14:45:55.525Z,13.80
2017-08-27T14:48:24.807Z,13.90
2017-08-27T14:50:54.047Z,13.93
2017-08-27T14:53:23.316Z,14.03
2017-08-27T14:55:52.579Z,13.23
2017-08-27T14:58:21.844Z,13.93
2017-08-27T15:00:51.120Z,12.95
2017-08-27T15:03:20.383Z,13.47
2017-08-27T15:05:49.653Z,13.40
2017-08-27T15:08:18.915Z,14.35
2017-08-27T15:10:48.211Z,12.53
2017-08-27T15:13:17.457Z,12.93
2017-08-27T15:15:46.721Z,11.80
2017-08-27T15:18:15.980Z,14.07
2017-08-27T15:20:45.238Z,12.50
2017-08-27T15:23:14.500Z,11.83
2017-08-27T15:25:43.764Z,13.00
2017-08-27T15:28:13.022Z,13.60
2017-08-27T15:30:42.293Z,13.13
2017-08-27T15:33:11.557Z,12.80
2017-08-27T15:35:40.830Z,13.35
2017-08-27T15:38:10.122Z,12.90
2017-08-27T15:40:39.376Z,12.30
2017-08-27T15:43:08.636Z,12.53
2017-08-27T15:45:37.901Z,10.98
2017-08-27T15:48:07.164Z,10.98
2017-08-27T15:50:36.432Z,11.60
2017-08-27T15:53:05.692Z,11.00
2017-08-27T15:55:34.963Z,11.07
2017-08-27T15:58:04.220Z,12.40
2017-08-27T16:00:33.484Z,11.95
2017-08-27T16:03:02.766Z,12.82
2017-08-27T16:05:32.937Z,11.35
2017-08-27T16:08:03.008Z,11.52
2017-08-27T16:10:32.285Z,12.02
2017-08-27T16:13:01.552Z,12.45
2017-08-27T16:15:30.814Z,10.00
2017-08-27T16:18:00.097Z,10.10
2017-08-27T16:20:29.352Z,9.38
2017-08-27T16:22:58.604Z,9.00
2017-08-27T16:25:27.873Z,9.15
2017-08-27T16:27:57.132Z,8.35
2017-08-27T16:30:26.410Z,7.57
2017-08-27T16:32:55.702Z,8.07
2017-08-27T16:35:24.953Z,8.52
2017-08-27T16:37:54.429Z,8.60
2017-08-27T16:40:28.557Z,8.52
2017-08-27T16:42:58.138Z,9.95
2017-08-27T16:45:27.421Z,9.23
2017-08-27T16:47:56.668Z,8.77
2017-08-27T16:50:25.924Z,8.93
2017-08-27T16:52:55.199Z,9.45
2017-08-27T16:55:24.448Z,9.73
2017-08-27T16:57:53.695Z,8.95
2017-08-27T17:00:22.940Z,8.80
2017-08-27T17:02:52.206Z,9.20
2017-08-27T17:05:21.465Z,10.05
2017-08-27T17:07:50.734Z,10.55
2017-08-27T17:10:20.001Z,13.38
2017-08-27T17:12:49.256Z,10.98
2017-08-27T17:15:18.532Z,12.13
2017-08-27T17:17:47.796Z,12.82
2017-08-27T17:20:17.051Z,11.55
2017-08-27T17:22:46.317Z,11.32
2017-08-27T17:25:15.580Z,12.40
2017-08-27T17:27:45.023Z,11.82
2017-08-27T17:30:14.283Z,12.02
2017-08-27T17:32:43.547Z,11.12
2017-08-27T17:35:12.809Z,12.10
2017-08-27T17:37:42.069Z,15.25
2017-08-27T17:40:11.364Z,13.77
2017-08-27T17:42:47.515Z,12.63
2017-08-27T17:45:16.781Z,12.93
2017-08-27T17:47:46.040Z,14.48
2017-08-27T17:50:15.305Z,13.20
2017-08-27T17:52:44.580Z,12.30
2017-08-27T17:55:13.839Z,12.52
2017-08-27T17:57:43.103Z,12.77
2017-08-27T18:00:12.356Z,13.25
2017-08-27T18:02:41.631Z,11.50
2017-08-27T18:05:10.906Z,13.50
2017-08-27T18:07:40.164Z,12.73
2017-08-27T18:10:09.423Z,12.68
2017-08-27T18:12:38.688Z,13.20
2017-08-27T18:15:07.955Z,12.63
2017-08-27T18:17:37.212Z,13.15
2017-08-27T18:20:06.484Z,13.48
2017-08-27T18:22:35.754Z,12.85
2017-08-27T18:25:05.009Z,12.10
2017-08-27T18:27:34.261Z,11.05
2017-08-27T18:30:03.522Z,11.63
2017-08-27T18:32:32.779Z,12.30
2017-08-27T18:35:02.041Z,10.90
2017-08-27T18:37:31.295Z,10.40
2017-08-27T18:40:00.549Z,11.07
2017-08-27T18:42:29.808Z,11.15
2017-08-27T18:45:00.072Z,11.20
2017-08-27T18:47:29.331Z,11.75
2017-08-27T18:49:58.599Z,12.60
2017-08-27T18:52:27.856Z,12.45
2017-08-27T18:54:57.128Z,12.20
2017-08-27T18:57:26.395Z,12.52
2017-08-27T18:59:55.647Z,12.63
2017-08-27T19:02:28.852Z,13.35
2017-08-27T19:04:58.101Z,12.45
2017-08-27T19:07:27.388Z,12.82
2017-08-27T19:09:56.679Z,11.57
2017-08-27T19:12:25.925Z,13.40
2017-08-27T19:14:55.183Z,12.48
2017-08-27T19:17:24.452Z,12.52
2017-08-27T19:19:53.717Z,13.50
2017-08-27T19:22:23.062Z,14.55
2017-08-27T19:24:52.335Z,14.32
2017-08-27T19:27:21.592Z,13.20
2017-08-27T19:29:50.891Z,14.68
2017-08-27T19:32:20.137Z,13.50
2017-08-27T19:34:49.392Z,13.82
2017-08-27T19:37:18.665Z,13.65
2017-08-27T19:39:47.976Z,14.13
2017-08-27T19:42:17.240Z,14.73
2017-08-27T19:44:46.488Z,13.90
2017-08-27T19:47:15.750Z,15.57
2017-08-27T19:49:45.017Z,14.27
2017-08-27T19:52:14.280Z,16.20
2017-08-27T19:54:43.537Z,16.73
2017-08-27T19:57:12.803Z,15.45
2017-08-27T19:59:42.065Z,14.48
2017-08-27T20:02:11.328Z,14.60
2017-08-27T20:04:40.589Z,14.70
2017-08-27T20:07:09.864Z,16.02
2017-08-27T20:09:39.122Z,14.63
2017-08-27T20:12:08.377Z,13.90
2017-08-27T20:14:37.637Z,14.90
2017-08-27T20:17:06.893Z,16.65
2017-08-27T20:19:36.160Z,16.17
2017-08-27T20:22:05.417Z,16.42
2017-08-27T20:24:34.685Z,15.57
2017-08-27T20:27:03.953Z,16.80
2017-08-27T20:29:33.212Z,16.30
2017-08-27T20:32:02.478Z,15.20
2017-08-27T20:34:31.750Z,15.63
2017-08-27T20:37:01.105Z,16.45
2017-08-27T20:39:30.361Z,15.25
2017-08-27T20:41:59.682Z,15.60
2017-08-27T20:44:28.941Z,15.75
2017-08-27T20:46:58.205Z,17.08
2017-08-27T20:49:27.456Z,18.70
2017-08-27T20:51:56.716Z,17.70
2017-08-27T20:54:25.985Z,16.50
2017-08-27T20:56:55.228Z,18.10
2017-08-27T20:59:24.484Z,16.10
2017-08-27T21:01:53.746Z,15.15
2017-08-27T21:04:23.021Z,17.10
2017-08-27T21:06:52.273Z,17.23
2017-08-27T21:09:21.535Z,15.85
2017-08-27T21:11:50.809Z,16.95
2017-08-27T21:14:20.060Z,17.98
2017-08-27T21:16:49.320Z,17.62
2017-08-27T21:19:18.585Z,17.62
2017-08-27T21:21:47.842Z,16.70
2017-08-27T21:24:17.104Z,18.00
2017-08-27T21:26:46.369Z,17.45
2017-08-27T21:29:15.651Z,16.08
2017-08-27T21:31:44.909Z,16.87
2017-08-27T21:34:14.164Z,17.12
2017-08-27T21:36:43.424Z,18.25
2017-08-27T21:39:12.697Z,18.48
2017-08-27T21:41:41.957Z,18.50
2017-08-27T21:44:11.221Z,17.92
2017-08-27T21:46:40.485Z,18.10
2017-08-27T21:49:09.749Z,17.35
2017-08-27T21:51:38.997Z,18.12
2017-08-27T21:54:08.257Z,17.50
2017-08-27T21:56:37.534Z,17.10
2017-08-27T21:59:06.794Z,18.60
2017-08-27T22:01:36.058Z,16.75
2017-08-27T22:04:05.317Z,17.85
2017-08-27T22:06:34.581Z,17.35
2017-08-27T22:09:03.849Z,19.95
2017-08-27T22:11:33.109Z,17.15
2017-08-27T22:14:02.371Z,17.62
2017-08-27T22:16:31.632Z,17.55
2017-08-27T22:19:00.900Z,17.52
2017-08-27T22:21:30.161Z,17.92
2017-08-27T22:23:59.416Z,18.62
2017-08-27T22:26:28.681Z,19.12
2017-08-27T22:28:57.936Z,18.60
2017-08-27T22:31:27.200Z,18.40
2017-08-27T22:33:56.461Z,18.02
2017-08-27T22:36:25.773Z,18.85
2017-08-27T22:38:55.000Z,18.15
2017-08-27T22:41:24.260Z,17.55
2017-08-27T22:43:53.524Z,18.92
2017-08-27T22:46:22.789Z,20.00
2017-08-27T22:48:52.049Z,19.02
2017-08-27T22:51:21.310Z,19.15
2017-08-27T22:53:50.572Z,20.55
2017-08-27T22:56:19.826Z,18.75
2017-08-27T22:58:49.099Z,20.35
2017-08-27T23:01:18.344Z,19.55
2017-08-27T23:03:47.608Z,20.70
2017-08-27T23:06:16.857Z,19.55
2017-08-27T23:08:46.120Z,20.05
2017-08-27T23:11:15.382Z,19.83
2017-08-27T23:13:44.647Z,20.10
2017-08-27T23:16:13.911Z,21.00
2017-08-27T23:18:43.163Z,20.27
2017-08-27T23:21:12.420Z,22.42
2017-08-27T23:23:41.685Z,21.08
2017-08-27T23:26:10.945Z,21.17
2017-08-27T23:28:40.210Z,20.60
2017-08-27T23:31:09.477Z,20.45
2017-08-27T23:33:38.743Z,21.17
2017-08-27T23:36:08.013Z,20.90
2017-08-27T23:38:37.268Z,19.75
2017-08-27T23:41:07.105Z,19.85
2017-08-27T23:43:36.369Z,19.70
2017-08-27T23:46:05.634Z,17.73
2017-08-27T23:48:34.888Z,18.70
2017-08-27T23:51:04.149Z,19.92
2017-08-27T23:53:33.412Z,22.15
2017-08-27T23:56:02.676Z,21.37
2017-08-27T23:58:31.925Z,22.08
